sensor_id;sensor_type;location;lat;lon;timestamp;P1;durP1;ratioP1;P2;durP2;ratioP2
64543;SDS011;50936;51.660;5.616;2022-08-19T00:02:11;35.15;;;21.45;;
64543;SDS011;50936;51.660;5.616;2022-08-19T00:04:38;36.33;;;23.02;;
64543;SDS011;50936;51.660;5.616;2022-08-19T00:07:06;38.50;;;22.60;;
64543;SDS011;50936;51.660;5.616;2022-08-19T00:09:33;36.17;;;23.05;;
64543;SDS011;50936;51.660;5.616;2022-08-19T00:12:00;36.47;;;23.65;;
64543;SDS011;50936;51.660;5.616;2022-08-19T00:14:28;39.38;;;23.75;;
64543;SDS011;50936;51.660;5.616;2022-08-19T00:16:59;38.05;;;23.52;;
64543;SDS011;50936;51.660;5.616;2022-08-19T00:19:27;39.03;;;24.67;;
64543;SDS011;50936;51.660;5.616;2022-08-19T00:21:55;38.53;;;23.75;;
64543;SDS011;50936;51.660;5.616;2022-08-19T00:24:22;39.45;;;24.92;;
64543;SDS011;50936;51.660;5.616;2022-08-19T00:26:51;37.80;;;23.42;;
64543;SDS011;50936;51.660;5.616;2022-08-19T00:29:20;39.85;;;24.17;;
64543;SDS011;50936;51.660;5.616;2022-08-19T00:31:47;38.00;;;23.50;;
64543;SDS011;50936;51.660;5.616;2022-08-19T00:34:16;39.75;;;23.10;;
64543;SDS011;50936;51.660;5.616;2022-08-19T00:36:43;38.03;;;23.92;;
64543;SDS011;50936;51.660;5.616;2022-08-19T00:39:11;38.92;;;23.05;;
64543;SDS011;50936;51.660;5.616;2022-08-19T00:41:42;39.03;;;24.25;;
64543;SDS011;50936;51.660;5.616;2022-08-19T00:44:15;37.38;;;23.50;;
64543;SDS011;50936;51.660;5.616;2022-08-19T00:46:53;36.78;;;23.40;;
64543;SDS011;50936;51.660;5.616;2022-08-19T00:49:31;42.33;;;24.70;;
64543;SDS011;50936;51.660;5.616;2022-08-19T00:52:16;41.47;;;25.00;;
64543;SDS011;50936;51.660;5.616;2022-08-19T00:57:20;42.40;;;24.95;;
64543;SDS011;50936;51.660;5.616;2022-08-19T00:59:56;40.75;;;24.17;;
64543;SDS011;50936;51.660;5.616;2022-08-19T01:02:28;38.97;;;24.13;;
64543;SDS011;50936;51.660;5.616;2022-08-19T01:04:57;41.63;;;24.95;;
64543;SDS011;50936;51.660;5.616;2022-08-19T01:07:28;46.50;;;26.15;;
64543;SDS011;50936;51.660;5.616;2022-08-19T01:10:03;43.67;;;24.52;;
64543;SDS011;50936;51.660;5.616;2022-08-19T01:12:35;43.78;;;24.92;;
64543;SDS011;50936;51.660;5.616;2022-08-19T01:15:03;49.13;;;27.45;;
64543;SDS011;50936;51.660;5.616;2022-08-19T01:17:34;43.10;;;25.10;;
64543;SDS011;50936;51.660;5.616;2022-08-19T01:20:05;45.13;;;25.33;;
64543;SDS011;50936;51.660;5.616;2022-08-19T01:22:40;42.33;;;25.92;;
64543;SDS011;50936;51.660;5.616;2022-08-19T01:25:17;41.13;;;24.17;;
64543;SDS011;50936;51.660;5.616;2022-08-19T01:27:50;46.58;;;24.42;;
64543;SDS011;50936;51.660;5.616;2022-08-19T01:30:20;44.45;;;23.88;;
64543;SDS011;50936;51.660;5.616;2022-08-19T01:32:52;43.22;;;24.85;;
64543;SDS011;50936;51.660;5.616;2022-08-19T01:35:22;46.05;;;24.40;;
64543;SDS011;50936;51.660;5.616;2022-08-19T01:37:59;44.63;;;23.67;;
64543;SDS011;50936;51.660;5.616;2022-08-19T01:40:35;43.20;;;24.67;;
64543;SDS011;50936;51.660;5.616;2022-08-19T01:43:06;43.28;;;23.48;;
64543;SDS011;50936;51.660;5.616;2022-08-19T01:45:34;42.58;;;22.92;;
64543;SDS011;50936;51.660;5.616;2022-08-19T01:48:02;41.00;;;23.70;;
64543;SDS011;50936;51.660;5.616;2022-08-19T01:50:30;41.97;;;22.80;;
64543;SDS011;50936;51.660;5.616;2022-08-19T01:53:00;42.03;;;23.05;;
64543;SDS011;50936;51.660;5.616;2022-08-19T01:55:34;41.45;;;22.60;;
64543;SDS011;50936;51.660;5.616;2022-08-19T01:58:09;43.25;;;23.35;;
64543;SDS011;50936;51.660;5.616;2022-08-19T02:00:47;40.72;;;23.00;;
64543;SDS011;50936;51.660;5.616;2022-08-19T02:03:15;43.55;;;24.17;;
64543;SDS011;50936;51.660;5.616;2022-08-19T02:05:43;41.05;;;23.05;;
64543;SDS011;50936;51.660;5.616;2022-08-19T02:08:10;40.33;;;23.13;;
64543;SDS011;50936;51.660;5.616;2022-08-19T02:10:39;43.90;;;24.38;;
64543;SDS011;50936;51.660;5.616;2022-08-19T02:13:09;43.60;;;23.40;;
64543;SDS011;50936;51.660;5.616;2022-08-19T02:15:38;42.22;;;22.88;;
64543;SDS011;50936;51.660;5.616;2022-08-19T02:18:05;43.45;;;22.27;;
64543;SDS011;50936;51.660;5.616;2022-08-19T02:20:35;43.42;;;23.30;;
64543;SDS011;50936;51.660;5.616;2022-08-19T02:23:03;41.20;;;21.90;;
64543;SDS011;50936;51.660;5.616;2022-08-19T02:25:39;39.47;;;21.77;;
64543;SDS011;50936;51.660;5.616;2022-08-19T02:28:06;41.97;;;22.75;;
64543;SDS011;50936;51.660;5.616;2022-08-19T02:30:34;38.63;;;22.42;;
64543;SDS011;50936;51.660;5.616;2022-08-19T02:33:01;41.33;;;21.88;;
64543;SDS011;50936;51.660;5.616;2022-08-19T02:35:27;40.25;;;20.63;;
64543;SDS011;50936;51.660;5.616;2022-08-19T02:37:54;41.20;;;21.73;;
64543;SDS011;50936;51.660;5.616;2022-08-19T02:40:40;44.97;;;23.30;;
64543;SDS011;50936;51.660;5.616;2022-08-19T02:43:15;40.25;;;20.67;;
64543;SDS011;50936;51.660;5.616;2022-08-19T02:45:42;42.83;;;22.17;;
64543;SDS011;50936;51.660;5.616;2022-08-19T02:48:09;45.78;;;23.45;;
64543;SDS011;50936;51.660;5.616;2022-08-19T02:50:47;43.47;;;21.70;;
64543;SDS011;50936;51.660;5.616;2022-08-19T02:53:22;44.97;;;21.40;;
64543;SDS011;50936;51.660;5.616;2022-08-19T02:55:52;42.63;;;22.08;;
64543;SDS011;50936;51.660;5.616;2022-08-19T02:58:20;42.17;;;21.40;;
64543;SDS011;50936;51.660;5.616;2022-08-19T03:00:51;42.97;;;21.80;;
64543;SDS011;50936;51.660;5.616;2022-08-19T03:03:22;44.72;;;23.00;;
64543;SDS011;50936;51.660;5.616;2022-08-19T03:05:49;44.00;;;22.30;;
64543;SDS011;50936;51.660;5.616;2022-08-19T03:08:23;43.40;;;22.13;;
64543;SDS011;50936;51.660;5.616;2022-08-19T03:10:52;46.17;;;22.48;;
64543;SDS011;50936;51.660;5.616;2022-08-19T03:13:20;45.33;;;23.60;;
64543;SDS011;50936;51.660;5.616;2022-08-19T03:15:47;51.85;;;23.77;;
64543;SDS011;50936;51.660;5.616;2022-08-19T03:18:15;46.55;;;22.27;;
64543;SDS011;50936;51.660;5.616;2022-08-19T03:20:44;50.08;;;23.48;;
64543;SDS011;50936;51.660;5.616;2022-08-19T03:23:15;44.83;;;22.50;;
64543;SDS011;50936;51.660;5.616;2022-08-19T03:25:45;44.42;;;21.73;;
64543;SDS011;50936;51.660;5.616;2022-08-19T03:28:34;48.17;;;23.13;;
64543;SDS011;50936;51.660;5.616;2022-08-19T03:31:02;47.65;;;23.23;;
64543;SDS011;50936;51.660;5.616;2022-08-19T03:33:57;47.17;;;24.20;;
64543;SDS011;50936;51.660;5.616;2022-08-19T03:36:25;46.67;;;23.65;;
64543;SDS011;50936;51.660;5.616;2022-08-19T03:38:56;51.70;;;23.85;;
64543;SDS011;50936;51.660;5.616;2022-08-19T03:41:27;46.05;;;21.83;;
64543;SDS011;50936;51.660;5.616;2022-08-19T03:44:10;45.30;;;22.20;;
64543;SDS011;50936;51.660;5.616;2022-08-19T03:46:43;46.75;;;23.60;;
64543;SDS011;50936;51.660;5.616;2022-08-19T03:49:12;41.55;;;20.65;;
64543;SDS011;50936;51.660;5.616;2022-08-19T03:51:40;47.78;;;21.65;;
64543;SDS011;50936;51.660;5.616;2022-08-19T03:54:10;49.03;;;23.67;;
64543;SDS011;50936;51.660;5.616;2022-08-19T03:56:41;48.97;;;23.15;;
64543;SDS011;50936;51.660;5.616;2022-08-19T03:59:14;45.88;;;23.08;;
64543;SDS011;50936;51.660;5.616;2022-08-19T04:01:46;44.55;;;21.48;;
64543;SDS011;50936;51.660;5.616;2022-08-19T04:04:13;45.92;;;22.42;;
64543;SDS011;50936;51.660;5.616;2022-08-19T04:06:40;48.10;;;22.77;;
64543;SDS011;50936;51.660;5.616;2022-08-19T04:09:10;41.65;;;20.45;;
64543;SDS011;50936;51.660;5.616;2022-08-19T04:11:39;43.90;;;21.83;;
64543;SDS011;50936;51.660;5.616;2022-08-19T04:14:21;45.17;;;22.30;;
64543;SDS011;50936;51.660;5.616;2022-08-19T04:16:56;50.28;;;23.67;;
64543;SDS011;50936;51.660;5.616;2022-08-19T04:19:26;40.85;;;21.42;;
64543;SDS011;50936;51.660;5.616;2022-08-19T04:21:55;42.65;;;21.70;;
64543;SDS011;50936;51.660;5.616;2022-08-19T04:24:22;36.35;;;20.15;;
64543;SDS011;50936;51.660;5.616;2022-08-19T04:26:50;36.85;;;21.70;;
64543;SDS011;50936;51.660;5.616;2022-08-19T04:29:22;34.88;;;18.58;;
64543;SDS011;50936;51.660;5.616;2022-08-19T04:31:52;36.95;;;19.75;;
64543;SDS011;50936;51.660;5.616;2022-08-19T04:34:23;37.42;;;19.70;;
64543;SDS011;50936;51.660;5.616;2022-08-19T04:36:54;38.15;;;19.75;;
64543;SDS011;50936;51.660;5.616;2022-08-19T04:39:28;36.70;;;19.48;;
64543;SDS011;50936;51.660;5.616;2022-08-19T04:42:17;37.40;;;19.25;;
64543;SDS011;50936;51.660;5.616;2022-08-19T04:45:04;36.92;;;19.55;;
64543;SDS011;50936;51.660;5.616;2022-08-19T04:47:38;39.72;;;19.90;;
64543;SDS011;50936;51.660;5.616;2022-08-19T04:50:24;39.63;;;20.05;;
64543;SDS011;50936;51.660;5.616;2022-08-19T04:52:53;37.20;;;20.67;;
64543;SDS011;50936;51.660;5.616;2022-08-19T04:55:21;37.92;;;19.75;;
64543;SDS011;50936;51.660;5.616;2022-08-19T04:57:52;43.00;;;21.63;;
64543;SDS011;50936;51.660;5.616;2022-08-19T05:00:21;41.03;;;22.55;;
64543;SDS011;50936;51.660;5.616;2022-08-19T05:02:48;38.88;;;21.30;;
64543;SDS011;50936;51.660;5.616;2022-08-19T05:05:15;44.75;;;21.98;;
64543;SDS011;50936;51.660;5.616;2022-08-19T05:07:43;44.03;;;23.77;;
64543;SDS011;50936;51.660;5.616;2022-08-19T05:10:11;44.25;;;22.58;;
64543;SDS011;50936;51.660;5.616;2022-08-19T05:12:39;48.20;;;22.10;;
64543;SDS011;50936;51.660;5.616;2022-08-19T05:15:06;44.58;;;22.33;;
64543;SDS011;50936;51.660;5.616;2022-08-19T05:17:35;45.67;;;22.52;;
64543;SDS011;50936;51.660;5.616;2022-08-19T05:20:06;43.50;;;22.67;;
64543;SDS011;50936;51.660;5.616;2022-08-19T05:22:53;46.17;;;23.77;;
64543;SDS011;50936;51.660;5.616;2022-08-19T05:25:20;45.20;;;23.58;;
64543;SDS011;50936;51.660;5.616;2022-08-19T05:27:48;45.85;;;24.42;;
64543;SDS011;50936;51.660;5.616;2022-08-19T05:30:15;47.20;;;23.45;;
64543;SDS011;50936;51.660;5.616;2022-08-19T05:32:44;44.33;;;22.52;;
64543;SDS011;50936;51.660;5.616;2022-08-19T05:35:11;45.08;;;23.25;;
64543;SDS011;50936;51.660;5.616;2022-08-19T05:37:38;46.65;;;24.38;;
64543;SDS011;50936;51.660;5.616;2022-08-19T05:40:09;46.35;;;23.60;;
64543;SDS011;50936;51.660;5.616;2022-08-19T05:42:37;49.72;;;24.85;;
64543;SDS011;50936;51.660;5.616;2022-08-19T05:45:04;50.35;;;24.45;;
64543;SDS011;50936;51.660;5.616;2022-08-19T05:47:33;51.13;;;25.75;;
64543;SDS011;50936;51.660;5.616;2022-08-19T05:50:07;49.83;;;22.83;;
64543;SDS011;50936;51.660;5.616;2022-08-19T05:52:34;49.95;;;22.92;;
64543;SDS011;50936;51.660;5.616;2022-08-19T05:55:09;58.05;;;27.77;;
64543;SDS011;50936;51.660;5.616;2022-08-19T05:57:36;58.95;;;27.83;;
64543;SDS011;50936;51.660;5.616;2022-08-19T06:00:04;62.17;;;28.92;;
64543;SDS011;50936;51.660;5.616;2022-08-19T06:02:37;57.83;;;26.90;;
64543;SDS011;50936;51.660;5.616;2022-08-19T06:05:04;61.50;;;26.92;;
64543;SDS011;50936;51.660;5.616;2022-08-19T06:07:33;63.03;;;26.77;;
64543;SDS011;50936;51.660;5.616;2022-08-19T06:10:06;63.55;;;29.27;;
64543;SDS011;50936;51.660;5.616;2022-08-19T06:15:06;69.55;;;30.25;;
64543;SDS011;50936;51.660;5.616;2022-08-19T06:17:37;60.50;;;24.75;;
64543;SDS011;50936;51.660;5.616;2022-08-19T06:20:06;65.53;;;29.90;;
64543;SDS011;50936;51.660;5.616;2022-08-19T06:22:38;61.63;;;30.42;;
64543;SDS011;50936;51.660;5.616;2022-08-19T06:25:08;63.85;;;28.33;;
64543;SDS011;50936;51.660;5.616;2022-08-19T06:27:36;66.95;;;30.15;;
64543;SDS011;50936;51.660;5.616;2022-08-19T06:30:18;69.30;;;31.05;;
64543;SDS011;50936;51.660;5.616;2022-08-19T06:32:45;55.80;;;23.48;;
64543;SDS011;50936;51.660;5.616;2022-08-19T06:35:12;63.95;;;27.85;;
64543;SDS011;50936;51.660;5.616;2022-08-19T06:37:40;63.33;;;30.02;;
64543;SDS011;50936;51.660;5.616;2022-08-19T06:40:09;57.60;;;28.30;;
64543;SDS011;50936;51.660;5.616;2022-08-19T06:42:39;65.82;;;31.45;;
64543;SDS011;50936;51.660;5.616;2022-08-19T06:45:20;63.25;;;30.17;;
64543;SDS011;50936;51.660;5.616;2022-08-19T06:47:50;58.65;;;27.38;;
64543;SDS011;50936;51.660;5.616;2022-08-19T06:50:20;60.78;;;27.08;;
64543;SDS011;50936;51.660;5.616;2022-08-19T06:52:51;62.47;;;29.13;;
64543;SDS011;50936;51.660;5.616;2022-08-19T06:55:19;71.22;;;31.48;;
64543;SDS011;50936;51.660;5.616;2022-08-19T06:57:46;63.03;;;30.00;;
64543;SDS011;50936;51.660;5.616;2022-08-19T07:00:14;58.83;;;29.25;;
64543;SDS011;50936;51.660;5.616;2022-08-19T07:02:42;55.35;;;24.35;;
64543;SDS011;50936;51.660;5.616;2022-08-19T07:05:21;59.17;;;25.95;;
64543;SDS011;50936;51.660;5.616;2022-08-19T07:07:48;60.28;;;26.58;;
64543;SDS011;50936;51.660;5.616;2022-08-19T07:10:16;62.60;;;26.88;;
64543;SDS011;50936;51.660;5.616;2022-08-19T07:12:44;56.03;;;24.15;;
64543;SDS011;50936;51.660;5.616;2022-08-19T07:15:12;63.75;;;28.17;;
64543;SDS011;50936;51.660;5.616;2022-08-19T07:17:39;56.92;;;24.30;;
64543;SDS011;50936;51.660;5.616;2022-08-19T07:20:07;49.40;;;24.25;;
64543;SDS011;50936;51.660;5.616;2022-08-19T07:22:37;64.28;;;28.58;;
64543;SDS011;50936;51.660;5.616;2022-08-19T07:25:07;62.13;;;28.70;;
64543;SDS011;50936;51.660;5.616;2022-08-19T07:27:35;63.13;;;28.60;;
64543;SDS011;50936;51.660;5.616;2022-08-19T07:30:05;61.67;;;28.42;;
64543;SDS011;50936;51.660;5.616;2022-08-19T07:32:37;56.60;;;26.52;;
64543;SDS011;50936;51.660;5.616;2022-08-19T07:35:06;50.60;;;23.90;;
64543;SDS011;50936;51.660;5.616;2022-08-19T07:37:33;60.13;;;29.42;;
64543;SDS011;50936;51.660;5.616;2022-08-19T07:40:02;63.17;;;29.23;;
64543;SDS011;50936;51.660;5.616;2022-08-19T07:42:34;54.03;;;26.63;;
64543;SDS011;50936;51.660;5.616;2022-08-19T07:45:01;55.20;;;27.00;;
64543;SDS011;50936;51.660;5.616;2022-08-19T07:47:30;52.05;;;26.38;;
64543;SDS011;50936;51.660;5.616;2022-08-19T07:50:16;58.08;;;30.52;;
64543;SDS011;50936;51.660;5.616;2022-08-19T07:52:46;45.85;;;21.67;;
64543;SDS011;50936;51.660;5.616;2022-08-19T07:55:17;53.80;;;29.48;;
64543;SDS011;50936;51.660;5.616;2022-08-19T07:58:09;54.97;;;29.35;;
64543;SDS011;50936;51.660;5.616;2022-08-19T08:00:39;54.22;;;26.60;;
64543;SDS011;50936;51.660;5.616;2022-08-19T08:03:07;56.58;;;27.70;;
64543;SDS011;50936;51.660;5.616;2022-08-19T08:05:35;55.92;;;28.58;;
64543;SDS011;50936;51.660;5.616;2022-08-19T08:08:20;48.85;;;26.05;;
64543;SDS011;50936;51.660;5.616;2022-08-19T08:11:13;57.28;;;28.35;;
64543;SDS011;50936;51.660;5.616;2022-08-19T08:13:49;55.47;;;29.70;;
64543;SDS011;50936;51.660;5.616;2022-08-19T08:16:30;56.45;;;27.73;;
64543;SDS011;50936;51.660;5.616;2022-08-19T08:19:13;50.35;;;26.55;;
64543;SDS011;50936;51.660;5.616;2022-08-19T08:21:51;51.20;;;25.17;;
64543;SDS011;50936;51.660;5.616;2022-08-19T08:24:24;51.78;;;28.45;;
64543;SDS011;50936;51.660;5.616;2022-08-19T08:26:57;45.50;;;22.60;;
64543;SDS011;50936;51.660;5.616;2022-08-19T08:29:27;49.83;;;26.73;;
64543;SDS011;50936;51.660;5.616;2022-08-19T08:32:00;49.00;;;24.27;;
64543;SDS011;50936;51.660;5.616;2022-08-19T08:34:28;44.22;;;25.17;;
64543;SDS011;50936;51.660;5.616;2022-08-19T08:36:54;51.70;;;26.75;;
64543;SDS011;50936;51.660;5.616;2022-08-19T08:39:22;53.83;;;26.73;;
64543;SDS011;50936;51.660;5.616;2022-08-19T08:44:53;49.65;;;23.90;;
64543;SDS011;50936;51.660;5.616;2022-08-19T08:47:34;48.53;;;24.55;;
64543;SDS011;50936;51.660;5.616;2022-08-19T08:50:08;48.15;;;24.83;;
64543;SDS011;50936;51.660;5.616;2022-08-19T08:52:47;41.17;;;20.50;;
64543;SDS011;50936;51.660;5.616;2022-08-19T08:55:22;49.65;;;25.05;;
64543;SDS011;50936;51.660;5.616;2022-08-19T08:58:16;51.65;;;25.38;;
64543;SDS011;50936;51.660;5.616;2022-08-19T09:00:54;48.90;;;24.63;;
64543;SDS011;50936;51.660;5.616;2022-08-19T09:03:22;43.65;;;22.60;;
64543;SDS011;50936;51.660;5.616;2022-08-19T09:08:59;43.72;;;23.67;;
64543;SDS011;50936;51.660;5.616;2022-08-19T09:14:38;47.47;;;24.40;;
64543;SDS011;50936;51.660;5.616;2022-08-19T09:17:18;55.58;;;25.77;;
64543;SDS011;50936;51.660;5.616;2022-08-19T09:19:59;47.53;;;26.85;;
64543;SDS011;50936;51.660;5.616;2022-08-19T09:22:37;54.25;;;26.40;;
64543;SDS011;50936;51.660;5.616;2022-08-19T09:25:07;48.17;;;24.25;;
64543;SDS011;50936;51.660;5.616;2022-08-19T09:27:36;49.22;;;23.38;;
64543;SDS011;50936;51.660;5.616;2022-08-19T09:30:19;41.85;;;22.52;;
64543;SDS011;50936;51.660;5.616;2022-08-19T09:32:56;45.40;;;23.60;;
64543;SDS011;50936;51.660;5.616;2022-08-19T09:35:25;44.35;;;22.63;;
64543;SDS011;50936;51.660;5.616;2022-08-19T09:37:57;45.97;;;22.27;;
64543;SDS011;50936;51.660;5.616;2022-08-19T09:40:26;48.63;;;23.77;;
64543;SDS011;50936;51.660;5.616;2022-08-19T09:42:56;44.70;;;23.40;;
64543;SDS011;50936;51.660;5.616;2022-08-19T09:45:35;44.33;;;23.75;;
64543;SDS011;50936;51.660;5.616;2022-08-19T09:48:02;53.08;;;25.50;;
64543;SDS011;50936;51.660;5.616;2022-08-19T09:50:29;44.78;;;23.70;;
64543;SDS011;50936;51.660;5.616;2022-08-19T09:53:00;46.72;;;23.90;;
64543;SDS011;50936;51.660;5.616;2022-08-19T09:55:27;47.50;;;24.13;;
64543;SDS011;50936;51.660;5.616;2022-08-19T09:57:59;42.63;;;21.65;;
64543;SDS011;50936;51.660;5.616;2022-08-19T10:00:30;46.97;;;22.55;;
64543;SDS011;50936;51.660;5.616;2022-08-19T10:02:57;48.97;;;24.98;;
64543;SDS011;50936;51.660;5.616;2022-08-19T10:05:24;45.63;;;23.42;;
64543;SDS011;50936;51.660;5.616;2022-08-19T10:08:15;45.67;;;21.13;;
64543;SDS011;50936;51.660;5.616;2022-08-19T10:10:52;40.25;;;21.23;;
64543;SDS011;50936;51.660;5.616;2022-08-19T10:13:23;46.55;;;21.58;;
64543;SDS011;50936;51.660;5.616;2022-08-19T10:15:54;37.05;;;17.95;;
64543;SDS011;50936;51.660;5.616;2022-08-19T10:18:28;42.80;;;21.70;;
64543;SDS011;50936;51.660;5.616;2022-08-19T10:21:02;40.67;;;20.70;;
64543;SDS011;50936;51.660;5.616;2022-08-19T10:23:44;30.35;;;16.77;;
64543;SDS011;50936;51.660;5.616;2022-08-19T10:26:17;39.97;;;20.50;;
64543;SDS011;50936;51.660;5.616;2022-08-19T10:28:52;34.63;;;17.83;;
64543;SDS011;50936;51.660;5.616;2022-08-19T10:31:24;29.55;;;15.25;;
64543;SDS011;50936;51.660;5.616;2022-08-19T10:34:13;39.60;;;19.83;;
64543;SDS011;50936;51.660;5.616;2022-08-19T10:36:53;40.65;;;20.92;;
64543;SDS011;50936;51.660;5.616;2022-08-19T10:39:31;38.97;;;20.45;;
64543;SDS011;50936;51.660;5.616;2022-08-19T10:42:09;42.17;;;20.67;;
64543;SDS011;50936;51.660;5.616;2022-08-19T10:44:40;39.75;;;21.90;;
64543;SDS011;50936;51.660;5.616;2022-08-19T10:47:08;43.08;;;21.95;;
64543;SDS011;50936;51.660;5.616;2022-08-19T10:49:52;36.72;;;20.48;;
64543;SDS011;50936;51.660;5.616;2022-08-19T10:52:40;42.63;;;22.17;;
64543;SDS011;50936;51.660;5.616;2022-08-19T10:55:16;39.13;;;17.58;;
64543;SDS011;50936;51.660;5.616;2022-08-19T10:58:11;36.45;;;19.42;;
64543;SDS011;50936;51.660;5.616;2022-08-19T11:00:40;44.85;;;24.73;;
64543;SDS011;50936;51.660;5.616;2022-08-19T11:03:09;42.15;;;23.38;;
64543;SDS011;50936;51.660;5.616;2022-08-19T11:05:36;45.60;;;24.05;;
64543;SDS011;50936;51.660;5.616;2022-08-19T11:08:06;50.00;;;24.67;;
64543;SDS011;50936;51.660;5.616;2022-08-19T11:10:50;39.28;;;19.65;;
64543;SDS011;50936;51.660;5.616;2022-08-19T11:13:23;48.63;;;24.52;;
64543;SDS011;50936;51.660;5.616;2022-08-19T11:16:01;34.83;;;15.80;;
64543;SDS011;50936;51.660;5.616;2022-08-19T11:18:37;37.17;;;21.42;;
64543;SDS011;50936;51.660;5.616;2022-08-19T11:23:46;33.95;;;18.08;;
64543;SDS011;50936;51.660;5.616;2022-08-19T11:26:16;37.85;;;20.48;;
64543;SDS011;50936;51.660;5.616;2022-08-19T11:28:45;34.53;;;16.05;;
64543;SDS011;50936;51.660;5.616;2022-08-19T11:31:16;38.03;;;19.33;;
64543;SDS011;50936;51.660;5.616;2022-08-19T11:33:49;35.85;;;17.75;;
64543;SDS011;50936;51.660;5.616;2022-08-19T11:36:20;37.65;;;17.58;;
64543;SDS011;50936;51.660;5.616;2022-08-19T11:38:48;37.63;;;18.35;;
64543;SDS011;50936;51.660;5.616;2022-08-19T11:41:17;31.90;;;16.85;;
64543;SDS011;50936;51.660;5.616;2022-08-19T11:43:46;26.35;;;14.82;;
64543;SDS011;50936;51.660;5.616;2022-08-19T11:46:14;37.63;;;20.63;;
64543;SDS011;50936;51.660;5.616;2022-08-19T11:48:43;35.38;;;18.50;;
64543;SDS011;50936;51.660;5.616;2022-08-19T11:51:12;37.33;;;19.27;;
64543;SDS011;50936;51.660;5.616;2022-08-19T11:53:42;33.92;;;18.15;;
64543;SDS011;50936;51.660;5.616;2022-08-19T11:56:09;31.40;;;16.95;;
64543;SDS011;50936;51.660;5.616;2022-08-19T11:58:36;28.50;;;16.00;;
64543;SDS011;50936;51.660;5.616;2022-08-19T12:01:07;25.25;;;14.73;;
64543;SDS011;50936;51.660;5.616;2022-08-19T12:03:37;28.20;;;16.50;;
64543;SDS011;50936;51.660;5.616;2022-08-19T12:06:06;26.02;;;15.25;;
64543;SDS011;50936;51.660;5.616;2022-08-19T12:08:36;27.83;;;15.30;;
64543;SDS011;50936;51.660;5.616;2022-08-19T12:11:03;28.40;;;16.50;;
64543;SDS011;50936;51.660;5.616;2022-08-19T12:13:31;30.63;;;18.23;;
64543;SDS011;50936;51.660;5.616;2022-08-19T12:15:58;29.17;;;17.35;;
64543;SDS011;50936;51.660;5.616;2022-08-19T12:18:26;25.20;;;14.50;;
64543;SDS011;50936;51.660;5.616;2022-08-19T12:20:53;26.77;;;15.68;;
64543;SDS011;50936;51.660;5.616;2022-08-19T12:23:23;28.65;;;16.42;;
64543;SDS011;50936;51.660;5.616;2022-08-19T12:25:50;28.23;;;16.52;;
64543;SDS011;50936;51.660;5.616;2022-08-19T12:28:18;27.58;;;16.60;;
64543;SDS011;50936;51.660;5.616;2022-08-19T12:30:46;33.35;;;17.08;;
64543;SDS011;50936;51.660;5.616;2022-08-19T12:33:18;26.23;;;14.43;;
64543;SDS011;50936;51.660;5.616;2022-08-19T12:35:49;24.15;;;12.55;;
64543;SDS011;50936;51.660;5.616;2022-08-19T12:38:17;26.60;;;15.45;;
64543;SDS011;50936;51.660;5.616;2022-08-19T12:40:46;25.42;;;15.55;;
64543;SDS011;50936;51.660;5.616;2022-08-19T12:43:15;24.42;;;13.65;;
64543;SDS011;50936;51.660;5.616;2022-08-19T12:45:42;32.65;;;17.90;;
64543;SDS011;50936;51.660;5.616;2022-08-19T12:48:12;32.35;;;18.48;;
64543;SDS011;50936;51.660;5.616;2022-08-19T12:51:00;33.20;;;18.25;;
64543;SDS011;50936;51.660;5.616;2022-08-19T12:53:34;29.63;;;17.55;;
64543;SDS011;50936;51.660;5.616;2022-08-19T12:56:05;30.52;;;16.75;;
64543;SDS011;50936;51.660;5.616;2022-08-19T12:58:38;27.75;;;16.50;;
64543;SDS011;50936;51.660;5.616;2022-08-19T13:01:14;28.88;;;16.50;;
64543;SDS011;50936;51.660;5.616;2022-08-19T13:03:48;28.10;;;16.08;;
64543;SDS011;50936;51.660;5.616;2022-08-19T13:06:18;26.73;;;15.93;;
64543;SDS011;50936;51.660;5.616;2022-08-19T13:08:46;27.33;;;17.30;;
64543;SDS011;50936;51.660;5.616;2022-08-19T13:11:15;31.83;;;16.88;;
64543;SDS011;50936;51.660;5.616;2022-08-19T13:16:14;24.17;;;13.60;;
64543;SDS011;50936;51.660;5.616;2022-08-19T13:18:42;27.00;;;15.30;;
64543;SDS011;50936;51.660;5.616;2022-08-19T13:23:40;28.73;;;16.00;;
64543;SDS011;50936;51.660;5.616;2022-08-19T13:26:10;29.98;;;15.80;;
64543;SDS011;50936;51.660;5.616;2022-08-19T13:28:39;30.48;;;15.57;;
64543;SDS011;50936;51.660;5.616;2022-08-19T13:31:40;34.35;;;17.42;;
64543;SDS011;50936;51.660;5.616;2022-08-19T13:34:30;30.90;;;17.08;;
64543;SDS011;50936;51.660;5.616;2022-08-19T13:37:01;32.08;;;17.80;;
64543;SDS011;50936;51.660;5.616;2022-08-19T13:39:34;38.13;;;19.45;;
64543;SDS011;50936;51.660;5.616;2022-08-19T13:44:30;28.63;;;15.75;;
64543;SDS011;50936;51.660;5.616;2022-08-19T13:47:02;34.65;;;19.55;;
64543;SDS011;50936;51.660;5.616;2022-08-19T13:49:33;37.90;;;19.02;;
64543;SDS011;50936;51.660;5.616;2022-08-19T13:52:03;30.08;;;17.08;;
64543;SDS011;50936;51.660;5.616;2022-08-19T13:54:31;39.75;;;20.83;;
64543;SDS011;50936;51.660;5.616;2022-08-19T13:56:58;29.65;;;15.43;;
64543;SDS011;50936;51.660;5.616;2022-08-19T13:59:25;38.58;;;19.67;;
64543;SDS011;50936;51.660;5.616;2022-08-19T14:01:52;36.90;;;20.75;;
64543;SDS011;50936;51.660;5.616;2022-08-19T14:04:23;39.08;;;21.20;;
64543;SDS011;50936;51.660;5.616;2022-08-19T14:06:50;39.60;;;19.77;;
64543;SDS011;50936;51.660;5.616;2022-08-19T14:09:17;37.63;;;18.88;;
64543;SDS011;50936;51.660;5.616;2022-08-19T14:11:43;42.53;;;19.55;;
64543;SDS011;50936;51.660;5.616;2022-08-19T14:14:12;43.88;;;22.10;;
64543;SDS011;50936;51.660;5.616;2022-08-19T14:16:41;41.40;;;19.45;;
64543;SDS011;50936;51.660;5.616;2022-08-19T14:19:09;33.50;;;17.17;;
64543;SDS011;50936;51.660;5.616;2022-08-19T14:21:35;34.63;;;17.17;;
64543;SDS011;50936;51.660;5.616;2022-08-19T14:24:07;32.33;;;17.67;;
64543;SDS011;50936;51.660;5.616;2022-08-19T14:26:34;32.13;;;15.48;;
64543;SDS011;50936;51.660;5.616;2022-08-19T14:29:01;29.75;;;14.38;;
64543;SDS011;50936;51.660;5.616;2022-08-19T14:31:28;31.65;;;17.70;;
64543;SDS011;50936;51.660;5.616;2022-08-19T14:33:56;29.15;;;16.02;;
64543;SDS011;50936;51.660;5.616;2022-08-19T14:36:23;35.95;;;16.98;;
64543;SDS011;50936;51.660;5.616;2022-08-19T14:38:50;30.45;;;16.20;;
64543;SDS011;50936;51.660;5.616;2022-08-19T14:41:18;29.10;;;14.70;;
64543;SDS011;50936;51.660;5.616;2022-08-19T14:43:49;26.23;;;13.93;;
64543;SDS011;50936;51.660;5.616;2022-08-19T14:46:20;26.00;;;14.15;;
64543;SDS011;50936;51.660;5.616;2022-08-19T14:48:55;25.92;;;13.38;;
64543;SDS011;50936;51.660;5.616;2022-08-19T14:51:25;25.45;;;12.32;;
64543;SDS011;50936;51.660;5.616;2022-08-19T14:53:55;28.65;;;15.38;;
64543;SDS011;50936;51.660;5.616;2022-08-19T14:56:25;25.50;;;12.77;;
64543;SDS011;50936;51.660;5.616;2022-08-19T14:58:55;31.00;;;14.85;;
64543;SDS011;50936;51.660;5.616;2022-08-19T15:01:27;28.77;;;14.05;;
64543;SDS011;50936;51.660;5.616;2022-08-19T15:03:54;24.13;;;11.52;;
64543;SDS011;50936;51.660;5.616;2022-08-19T15:06:22;24.10;;;12.85;;
64543;SDS011;50936;51.660;5.616;2022-08-19T15:08:50;24.80;;;13.35;;
64543;SDS011;50936;51.660;5.616;2022-08-19T15:11:19;24.95;;;12.57;;